sensor_id;sensor_type;location;lat;lon;timestamp;pressure;altitude;pressure_sealevel;temperature;humidity
76819;BME280;65772;51.096;17.006;2023-04-25T00:00:39;99290.15;;;14.81;50.08
76819;BME280;65772;51.096;17.006;2023-04-25T00:03:10;99285.69;;;14.80;50.32
76819;BME280;65772;51.096;17.006;2023-04-25T00:05:41;99282.77;;;14.80;50.31
76819;BME280;65772;51.096;17.006;2023-04-25T00:08:12;99281.39;;;14.79;50.09
76819;BME280;65772;51.096;17.006;2023-04-25T00:10:42;99278.83;;;14.78;50.14
76819;BME280;65772;51.096;17.006;2023-04-25T00:13:13;99283.64;;;14.77;50.15
76819;BME280;65772;51.096;17.006;2023-04-25T00:15:44;99290.16;;;14.75;50.39
76819;BME280;65772;51.096;17.006;2023-04-25T00:18:17;99290.20;;;14.70;50.26
76819;BME280;65772;51.096;17.006;2023-04-25T00:20:48;99289.86;;;14.64;50.27
76819;BME280;65772;51.096;17.006;2023-04-25T00:23:18;99292.98;;;14.60;50.61
76819;BME280;65772;51.096;17.006;2023-04-25T00:25:50;99295.41;;;14.57;50.45
76819;BME280;65772;51.096;17.006;2023-04-25T00:28:20;99292.99;;;14.55;50.73
76819;BME280;65772;51.096;17.006;2023-04-25T00:30:51;99295.75;;;14.55;50.48
76819;BME280;65772;51.096;17.006;2023-04-25T00:33:21;99295.92;;;14.56;50.54
76819;BME280;65772;51.096;17.006;2023-04-25T00:35:52;99293.01;;;14.55;50.38
76819;BME280;65772;51.096;17.006;2023-04-25T00:38:23;99290.95;;;14.53;50.40
76819;BME280;65772;51.096;17.006;2023-04-25T00:40:53;99295.09;;;14.51;50.51
76819;BME280;65772;51.096;17.006;2023-04-25T00:43:25;99294.07;;;14.49;50.68
76819;BME280;65772;51.096;17.006;2023-04-25T00:45:58;99295.44;;;14.49;50.81
76819;BME280;65772;51.096;17.006;2023-04-25T00:48:30;99300.59;;;14.50;50.70
76819;BME280;65772;51.096;17.006;2023-04-25T00:51:00;99299.55;;;14.51;50.39
76819;BME280;65772;51.096;17.006;2023-04-25T00:53:32;99302.83;;;14.51;50.46
76819;BME280;65772;51.096;17.006;2023-04-25T00:56:03;99304.36;;;14.49;50.72
76819;BME280;65772;51.096;17.006;2023-04-25T00:58:33;99300.42;;;14.48;50.43
76819;BME280;65772;51.096;17.006;2023-04-25T01:01:05;99301.45;;;14.48;50.45
76819;BME280;65772;51.096;17.006;2023-04-25T01:03:39;99302.14;;;14.48;50.09
76819;BME280;65772;51.096;17.006;2023-04-25T01:06:11;99306.44;;;14.47;49.85
76819;BME280;65772;51.096;17.006;2023-04-25T01:08:42;99309.00;;;14.45;49.95
76819;BME280;65772;51.096;17.006;2023-04-25T01:11:12;99308.84;;;14.45;49.97
76819;BME280;65772;51.096;17.006;2023-04-25T01:13:43;99308.14;;;14.43;49.84
76819;BME280;65772;51.096;17.006;2023-04-25T01:16:14;99306.62;;;14.41;49.77
76819;BME280;65772;51.096;17.006;2023-04-25T01:18:46;99305.25;;;14.40;49.89
76819;BME280;65772;51.096;17.006;2023-04-25T01:21:17;99302.31;;;14.38;49.87
76819;BME280;65772;51.096;17.006;2023-04-25T01:23:47;99304.20;;;14.36;49.63
76819;BME280;65772;51.096;17.006;2023-04-25T01:26:19;99302.98;;;14.35;49.51
76819;BME280;65772;51.096;17.006;2023-04-25T01:28:50;99302.31;;;14.34;49.62
76819;BME280;65772;51.096;17.006;2023-04-25T01:31:20;99308.15;;;14.32;49.30
76819;BME280;65772;51.096;17.006;2023-04-25T01:33:51;99308.85;;;14.30;49.47
76819;BME280;65772;51.096;17.006;2023-04-25T01:36:23;99309.03;;;14.28;49.42
76819;BME280;65772;51.096;17.006;2023-04-25T01:38:54;99309.38;;;14.27;49.59
76819;BME280;65772;51.096;17.006;2023-04-25T01:41:25;99308.70;;;14.25;49.49
76819;BME280;65772;51.096;17.006;2023-04-25T01:43:56;99305.94;;;14.22;49.64
76819;BME280;65772;51.096;17.006;2023-04-25T01:46:26;99308.02;;;14.20;49.40
76819;BME280;65772;51.096;17.006;2023-04-25T01:48:57;99309.57;;;14.17;49.19
76819;BME280;65772;51.096;17.006;2023-04-25T01:51:28;99307.00;;;14.16;49.50
76819;BME280;65772;51.096;17.006;2023-04-25T01:54:00;99306.83;;;14.13;49.33
76819;BME280;65772;51.096;17.006;2023-04-25T01:56:31;99310.09;;;14.11;49.46
76819;BME280;65772;51.096;17.006;2023-04-25T01:59:02;99308.05;;;14.08;49.53
76819;BME280;65772;51.096;17.006;2023-04-25T02:01:47;99306.49;;;14.05;49.78
76819;BME280;65772;51.096;17.006;2023-04-25T02:04:22;99309.07;;;14.01;49.80
76819;BME280;65772;51.096;17.006;2023-04-25T02:06:53;99316.79;;;14.01;49.85
76819;BME280;65772;51.096;17.006;2023-04-25T02:09:24;99317.64;;;14.00;49.83
76819;BME280;65772;51.096;17.006;2023-04-25T02:11:57;99318.86;;;13.97;50.08
76819;BME280;65772;51.096;17.006;2023-04-25T02:15:05;99319.38;;;13.93;50.29
76819;BME280;65772;51.096;17.006;2023-04-25T02:17:41;99322.64;;;13.92;50.17
76819;BME280;65772;51.096;17.006;2023-04-25T02:20:13;99324.17;;;13.92;49.80
76819;BME280;65772;51.096;17.006;2023-04-25T02:22:45;99323.50;;;13.93;50.08
76819;BME280;65772;51.096;17.006;2023-04-25T02:25:15;99317.15;;;13.92;50.24
76819;BME280;65772;51.096;17.006;2023-04-25T02:27:46;99311.83;;;13.93;50.07
76819;BME280;65772;51.096;17.006;2023-04-25T02:30:17;99308.57;;;13.93;50.02
76819;BME280;65772;51.096;17.006;2023-04-25T02:32:47;99313.55;;;13.92;49.95
76819;BME280;65772;51.096;17.006;2023-04-25T02:35:18;99311.32;;;13.89;50.04
76819;BME280;65772;51.096;17.006;2023-04-25T02:37:49;99313.21;;;13.86;50.49
76819;BME280;65772;51.096;17.006;2023-04-25T02:40:19;99313.73;;;13.84;50.50
76819;BME280;65772;51.096;17.006;2023-04-25T02:42:50;99313.38;;;13.86;49.93
76819;BME280;65772;51.096;17.006;2023-04-25T02:45:21;99317.32;;;13.88;50.13
76819;BME280;65772;51.096;17.006;2023-04-25T02:47:51;99315.26;;;13.91;49.95
76819;BME280;65772;51.096;17.006;2023-04-25T02:50:22;99314.06;;;13.93;49.90
76819;BME280;65772;51.096;17.006;2023-04-25T02:52:53;99316.81;;;13.95;49.81
76819;BME280;65772;51.096;17.006;2023-04-25T02:55:27;99319.04;;;13.94;49.91
76819;BME280;65772;51.096;17.006;2023-04-25T02:57:58;99320.06;;;13.91;50.47
76819;BME280;65772;51.096;17.006;2023-04-25T03:00:39;99318.86;;;13.88;50.22
76819;BME280;65772;51.096;17.006;2023-04-25T03:03:10;99311.15;;;13.85;50.64
76819;BME280;65772;51.096;17.006;2023-04-25T03:05:41;99312.70;;;13.83;50.29
76819;BME280;65772;51.096;17.006;2023-04-25T03:08:11;99310.64;;;13.81;50.18
76819;BME280;65772;51.096;17.006;2023-04-25T03:10:42;99309.27;;;13.81;50.07
76819;BME280;65772;51.096;17.006;2023-04-25T03:13:13;99308.58;;;13.83;50.27
76819;BME280;65772;51.096;17.006;2023-04-25T03:15:44;99308.75;;;13.82;50.35
76819;BME280;65772;51.096;17.006;2023-04-25T03:18:15;99308.91;;;13.80;50.33
76819;BME280;65772;51.096;17.006;2023-04-25T03:20:46;99309.79;;;13.77;50.25
76819;BME280;65772;51.096;17.006;2023-04-25T03:23:17;99308.23;;;13.73;50.56
76819;BME280;65772;51.096;17.006;2023-04-25T03:25:47;99308.40;;;13.69;50.56
76819;BME280;65772;51.096;17.006;2023-04-25T03:28:18;99308.58;;;13.66;50.53
76819;BME280;65772;51.096;17.006;2023-04-25T03:30:49;99310.98;;;13.63;50.76
76819;BME280;65772;51.096;17.006;2023-04-25T03:33:20;99312.18;;;13.61;50.78
76819;BME280;65772;51.096;17.006;2023-04-25T03:35:50;99313.55;;;13.60;50.75
76819;BME280;65772;51.096;17.006;2023-04-25T03:38:21;99316.98;;;13.58;50.53
76819;BME280;65772;51.096;17.006;2023-04-25T03:40:53;99320.58;;;13.55;50.45
76819;BME280;65772;51.096;17.006;2023-04-25T03:43:38;99317.66;;;13.49;50.57
76819;BME280;65772;51.096;17.006;2023-04-25T03:46:12;99322.11;;;13.46;50.65
76819;BME280;65772;51.096;17.006;2023-04-25T03:48:44;99320.06;;;13.43;50.43
76819;BME280;65772;51.096;17.006;2023-04-25T03:51:19;99321.26;;;13.42;50.28
76819;BME280;65772;51.096;17.006;2023-04-25T03:53:50;99328.29;;;13.41;50.58
76819;BME280;65772;51.096;17.006;2023-04-25T03:56:21;99327.42;;;13.40;50.33
76819;BME280;65772;51.096;17.006;2023-04-25T03:58:57;99330.84;;;13.38;50.35
76819;BME280;65772;51.096;17.006;2023-04-25T04:01:28;99330.48;;;13.37;50.25
76819;BME280;65772;51.096;17.006;2023-04-25T04:03:59;99333.24;;;13.35;50.29
76819;BME280;65772;51.096;17.006;2023-04-25T04:06:32;99332.39;;;13.34;50.50
76819;BME280;65772;51.096;17.006;2023-04-25T04:09:12;99333.93;;;13.33;50.38
76819;BME280;65772;51.096;17.006;2023-04-25T04:11:44;99335.83;;;13.33;50.33
76819;BME280;65772;51.096;17.006;2023-04-25T04:14:15;99337.55;;;13.34;50.49
76819;BME280;65772;51.096;17.006;2023-04-25T04:16:47;99340.61;;;13.36;50.36
76819;BME280;65772;51.096;17.006;2023-04-25T04:19:18;99340.44;;;13.37;50.48
76819;BME280;65772;51.096;17.006;2023-04-25T04:21:54;99346.95;;;13.38;50.55
76819;BME280;65772;51.096;17.006;2023-04-25T04:24:25;99345.41;;;13.37;50.23
76819;BME280;65772;51.096;17.006;2023-04-25T04:27:04;99349.35;;;13.36;50.56
76819;BME280;65772;51.096;17.006;2023-04-25T04:29:41;99350.73;;;13.34;50.47
76819;BME280;65772;51.096;17.006;2023-04-25T04:32:17;99351.08;;;13.34;50.36
76819;BME280;65772;51.096;17.006;2023-04-25T04:34:47;99355.00;;;13.31;50.43
76819;BME280;65772;51.096;17.006;2023-04-25T04:37:19;99352.58;;;13.28;50.58
76819;BME280;65772;51.096;17.006;2023-04-25T04:39:51;99353.10;;;13.26;50.66
76819;BME280;65772;51.096;17.006;2023-04-25T04:42:44;99357.56;;;13.23;50.85
76819;BME280;65772;51.096;17.006;2023-04-25T04:45:21;99359.61;;;13.20;50.75
76819;BME280;65772;51.096;17.006;2023-04-25T04:48:30;99357.36;;;13.17;50.69
76819;BME280;65772;51.096;17.006;2023-04-25T04:51:22;99355.65;;;13.18;50.97
76819;BME280;65772;51.096;17.006;2023-04-25T04:54:12;99357.55;;;13.19;50.65
76819;BME280;65772;51.096;17.006;2023-04-25T04:57:06;99356.34;;;13.18;50.62
76819;BME280;65772;51.096;17.006;2023-04-25T04:59:57;99355.48;;;13.17;50.62
76819;BME280;65772;51.096;17.006;2023-04-25T05:02:46;99356.35;;;13.19;50.51
76819;BME280;65772;51.096;17.006;2023-04-25T05:05:32;99353.75;;;13.16;50.53
76819;BME280;65772;51.096;17.006;2023-04-25T05:08:22;99351.52;;;13.14;50.50
76819;BME280;65772;51.096;17.006;2023-04-25T05:11:01;99351.36;;;13.17;50.51
76819;BME280;65772;51.096;17.006;2023-04-25T05:13:57;99355.64;;;13.16;50.46
76819;BME280;65772;51.096;17.006;2023-04-25T05:16:46;99353.94;;;13.17;50.35
76819;BME280;65772;51.096;17.006;2023-04-25T05:19:39;99355.30;;;13.17;50.60
76819;BME280;65772;51.096;17.006;2023-04-25T05:22:27;99350.50;;;13.16;50.32
76819;BME280;65772;51.096;17.006;2023-04-25T05:25:17;99353.26;;;13.18;50.39
76819;BME280;65772;51.096;17.006;2023-04-25T05:28:07;99349.33;;;13.22;50.45
76819;BME280;65772;51.096;17.006;2023-04-25T05:30:45;99349.67;;;13.20;50.57
76819;BME280;65772;51.096;17.006;2023-04-25T05:33:28;99352.40;;;13.18;50.44
76819;BME280;65772;51.096;17.006;2023-04-25T05:35:59;99352.20;;;13.14;50.42
76819;BME280;65772;51.096;17.006;2023-04-25T05:38:29;99347.56;;;13.12;50.13
76819;BME280;65772;51.096;17.006;2023-04-25T05:41:21;99348.06;;;13.09;49.93
76819;BME280;65772;51.096;17.006;2023-04-25T05:44:09;99345.83;;;13.09;50.09
76819;BME280;65772;51.096;17.006;2023-04-25T05:46:48;99345.65;;;13.08;50.11
76819;BME280;65772;51.096;17.006;2023-04-25T05:49:37;99346.36;;;13.12;50.01
76819;BME280;65772;51.096;17.006;2023-04-25T05:52:26;99346.89;;;13.14;49.84
76819;BME280;65772;51.096;17.006;2023-04-25T05:55:12;99351.02;;;13.16;49.86
76819;BME280;65772;51.096;17.006;2023-04-25T05:57:43;99348.60;;;13.13;49.93
76819;BME280;65772;51.096;17.006;2023-04-25T06:00:16;99354.59;;;13.12;49.81
76819;BME280;65772;51.096;17.006;2023-04-25T06:02:49;99350.83;;;13.14;49.75
76819;BME280;65772;51.096;17.006;2023-04-25T06:05:21;99347.23;;;13.14;49.68
76819;BME280;65772;51.096;17.006;2023-04-25T06:07:52;99349.64;;;13.16;49.73
76819;BME280;65772;51.096;17.006;2023-04-25T06:10:22;99347.27;;;13.20;49.57
76819;BME280;65772;51.096;17.006;2023-04-25T06:12:53;99352.92;;;13.22;49.57
76819;BME280;65772;51.096;17.006;2023-04-25T06:15:24;99348.31;;;13.23;49.48
76819;BME280;65772;51.096;17.006;2023-04-25T06:17:57;99349.02;;;13.24;49.01
76819;BME280;65772;51.096;17.006;2023-04-25T06:20:28;99352.08;;;13.23;49.29
76819;BME280;65772;51.096;17.006;2023-04-25T06:23:00;99351.39;;;13.22;49.17
76819;BME280;65772;51.096;17.006;2023-04-25T06:25:41;99351.40;;;13.23;49.25
76819;BME280;65772;51.096;17.006;2023-04-25T06:28:11;99349.84;;;13.25;49.14
76819;BME280;65772;51.096;17.006;2023-04-25T06:30:42;99348.83;;;13.25;49.76
76819;BME280;65772;51.096;17.006;2023-04-25T06:33:16;99346.94;;;13.23;49.67
76819;BME280;65772;51.096;17.006;2023-04-25T06:35:47;99346.59;;;13.23;49.56
76819;BME280;65772;51.096;17.006;2023-04-25T06:38:20;99347.28;;;13.23;49.46
76819;BME280;65772;51.096;17.006;2023-04-25T06:40:52;99347.79;;;13.27;49.42
76819;BME280;65772;51.096;17.006;2023-04-25T06:43:23;99350.03;;;13.30;49.38
76819;BME280;65772;51.096;17.006;2023-04-25T06:46:16;99352.62;;;13.35;49.34
76819;BME280;65772;51.096;17.006;2023-04-25T06:48:48;99348.48;;;13.37;48.75
76819;BME280;65772;51.096;17.006;2023-04-25T06:51:20;99347.29;;;13.38;48.88
76819;BME280;65772;51.096;17.006;2023-04-25T06:53:54;99346.44;;;13.38;48.76
76819;BME280;65772;51.096;17.006;2023-04-25T06:56:30;99343.70;;;13.39;48.51
76819;BME280;65772;51.096;17.006;2023-04-25T06:59:19;99345.92;;;13.39;48.52
76819;BME280;65772;51.096;17.006;2023-04-25T07:01:50;99343.02;;;13.40;48.44
76819;BME280;65772;51.096;17.006;2023-04-25T07:04:23;99339.95;;;13.43;48.33
76819;BME280;65772;51.096;17.006;2023-04-25T07:06:57;99334.28;;;13.46;48.52
76819;BME280;65772;51.096;17.006;2023-04-25T07:09:39;99334.11;;;13.47;48.39
76819;BME280;65772;51.096;17.006;2023-04-25T07:12:09;99334.96;;;13.47;47.54
76819;BME280;65772;51.096;17.006;2023-04-25T07:14:39;99326.91;;;13.48;47.66
76819;BME280;65772;51.096;17.006;2023-04-25T07:17:10;99329.48;;;13.48;47.61
76819;BME280;65772;51.096;17.006;2023-04-25T07:19:41;99328.61;;;13.48;47.15
76819;BME280;65772;51.096;17.006;2023-04-25T07:22:12;99333.42;;;13.48;47.06
76819;BME280;65772;51.096;17.006;2023-04-25T07:24:43;99337.54;;;13.47;47.18
76819;BME280;65772;51.096;17.006;2023-04-25T07:27:18;99336.85;;;13.47;46.95
76819;BME280;65772;51.096;17.006;2023-04-25T07:30:10;99339.94;;;13.47;46.77
76819;BME280;65772;51.096;17.006;2023-04-25T07:32:39;99336.35;;;13.49;47.17
76819;BME280;65772;51.096;17.006;2023-04-25T07:35:10;99342.86;;;13.49;46.93
76819;BME280;65772;51.096;17.006;2023-04-25T07:37:41;99344.05;;;13.48;46.65
76819;BME280;65772;51.096;17.006;2023-04-25T07:40:17;99343.55;;;13.46;46.47
76819;BME280;65772;51.096;17.006;2023-04-25T07:42:51;99340.62;;;13.45;46.76
76819;BME280;65772;51.096;17.006;2023-04-25T07:45:28;99338.58;;;13.43;46.61
76819;BME280;65772;51.096;17.006;2023-04-25T07:47:58;99336.35;;;13.42;46.48
76819;BME280;65772;51.096;17.006;2023-04-25T07:50:30;99335.98;;;13.39;46.73
76819;BME280;65772;51.096;17.006;2023-04-25T07:53:00;99333.93;;;13.39;46.64
76819;BME280;65772;51.096;17.006;2023-04-25T07:55:36;99328.95;;;13.39;46.90
76819;BME280;65772;51.096;17.006;2023-04-25T07:58:16;99332.55;;;13.39;47.08
76819;BME280;65772;51.096;17.006;2023-04-25T08:00:54;99333.76;;;13.39;47.28
76819;BME280;65772;51.096;17.006;2023-04-25T08:03:42;99332.04;;;13.38;47.65
76819;BME280;65772;51.096;17.006;2023-04-25T08:06:18;99332.90;;;13.38;48.13
76819;BME280;65772;51.096;17.006;2023-04-25T08:09:06;99335.81;;;13.39;48.07
76819;BME280;65772;51.096;17.006;2023-04-25T08:11:39;99337.55;;;13.42;48.15
76819;BME280;65772;51.096;17.006;2023-04-25T08:14:12;99341.15;;;13.45;47.95
76819;BME280;65772;51.096;17.006;2023-04-25T08:16:42;99340.27;;;13.48;48.41
76819;BME280;65772;51.096;17.006;2023-04-25T08:19:13;99338.91;;;13.49;48.16
76819;BME280;65772;51.096;17.006;2023-04-25T08:21:44;99344.41;;;13.51;48.33
76819;BME280;65772;51.096;17.006;2023-04-25T08:24:18;99339.77;;;13.50;48.37
76819;BME280;65772;51.096;17.006;2023-04-25T08:26:48;99346.30;;;13.49;48.39
76819;BME280;65772;51.096;17.006;2023-04-25T08:29:19;99347.31;;;13.47;48.47
76819;BME280;65772;51.096;17.006;2023-04-25T08:31:52;99347.30;;;13.47;48.59
76819;BME280;65772;51.096;17.006;2023-04-25T08:34:23;99349.20;;;13.47;48.79
76819;BME280;65772;51.096;17.006;2023-04-25T08:36:55;99351.44;;;13.50;48.47
76819;BME280;65772;51.096;17.006;2023-04-25T08:39:31;99355.91;;;13.53;48.40
76819;BME280;65772;51.096;17.006;2023-04-25T08:42:25;99357.11;;;13.54;48.68
76819;BME280;65772;51.096;17.006;2023-04-25T08:44:57;99356.57;;;13.56;48.70
76819;BME280;65772;51.096;17.006;2023-04-25T08:47:34;99358.30;;;13.59;48.76
76819;BME280;65772;51.096;17.006;2023-04-25T08:50:06;99360.19;;;13.61;48.76
76819;BME280;65772;51.096;17.006;2023-04-25T08:52:39;99359.17;;;13.63;48.73
76819;BME280;65772;51.096;17.006;2023-04-25T08:55:14;99361.06;;;13.63;48.37
76819;BME280;65772;51.096;17.006;2023-04-25T08:57:44;99355.05;;;13.61;48.71
76819;BME280;65772;51.096;17.006;2023-04-25T09:00:15;99356.59;;;13.60;49.11
76819;BME280;65772;51.096;17.006;2023-04-25T09:02:48;99354.54;;;13.60;49.10
76819;BME280;65772;51.096;17.006;2023-04-25T09:05:19;99354.20;;;13.63;48.97
76819;BME280;65772;51.096;17.006;2023-04-25T09:07:53;99356.95;;;13.64;48.80
76819;BME280;65772;51.096;17.006;2023-04-25T09:10:25;99363.46;;;13.66;48.97
76819;BME280;65772;51.096;17.006;2023-04-25T09:13:05;99365.00;;;13.66;48.26
76819;BME280;65772;51.096;17.006;2023-04-25T09:15:56;99362.44;;;13.64;48.33
76819;BME280;65772;51.096;17.006;2023-04-25T09:18:40;99367.06;;;13.62;48.60
76819;BME280;65772;51.096;17.006;2023-04-25T09:21:17;99365.17;;;13.63;48.83
76819;BME280;65772;51.096;17.006;2023-04-25T09:23:49;99360.20;;;13.66;48.77
76819;BME280;65772;51.096;17.006;2023-04-25T09:26:22;99356.77;;;13.71;48.85
76819;BME280;65772;51.096;17.006;2023-04-25T09:29:06;99355.08;;;13.75;48.55
76819;BME280;65772;51.096;17.006;2023-04-25T09:31:39;99363.98;;;13.78;48.44
76819;BME280;65772;51.096;17.006;2023-04-25T09:34:10;99357.29;;;13.78;47.91
76819;BME280;65772;51.096;17.006;2023-04-25T09:36:48;99362.44;;;13.81;48.03
76819;BME280;65772;51.096;17.006;2023-04-25T09:39:41;99359.69;;;13.81;47.73
76819;BME280;65772;51.096;17.006;2023-04-25T09:42:16;99365.36;;;13.83;47.76
76819;BME280;65772;51.096;17.006;2023-04-25T09:44:45;99363.30;;;13.84;47.54
76819;BME280;65772;51.096;17.006;2023-04-25T09:47:17;99365.54;;;13.84;47.47
76819;BME280;65772;51.096;17.006;2023-04-25T09:49:51;99359.53;;;13.85;47.18
76819;BME280;65772;51.096;17.006;2023-04-25T09:52:24;99361.42;;;13.86;47.24
76819;BME280;65772;51.096;17.006;2023-04-25T09:55:13;99366.55;;;13.88;47.50
76819;BME280;65772;51.096;17.006;2023-04-25T09:57:49;99369.13;;;13.90;47.11
76819;BME280;65772;51.096;17.006;2023-04-25T10:00:22;99368.78;;;13.90;47.64
76819;BME280;65772;51.096;17.006;2023-04-25T10:02:55;99369.63;;;13.90;47.74
76819;BME280;65772;51.096;17.006;2023-04-25T10:05:44;99370.48;;;13.91;47.52
76819;BME280;65772;51.096;17.006;2023-04-25T10:08:14;99370.16;;;13.91;47.49
76819;BME280;65772;51.096;17.006;2023-04-25T10:10:45;99372.05;;;13.91;47.68
76819;BME280;65772;51.096;17.006;2023-04-25T10:13:17;99373.08;;;13.94;48.04
76819;BME280;65772;51.096;17.006;2023-04-25T10:15:49;99370.17;;;13.96;48.39
76819;BME280;65772;51.096;17.006;2023-04-25T10:18:21;99371.36;;;14.00;48.10
76819;BME280;65772;51.096;17.006;2023-04-25T10:20:51;99371.36;;;14.03;47.65
76819;BME280;65772;51.096;17.006;2023-04-25T10:23:23;99369.82;;;14.04;47.87
76819;BME280;65772;51.096;17.006;2023-04-25T10:25:54;99366.91;;;14.07;47.61
76819;BME280;65772;51.096;17.006;2023-04-25T10:28:25;99362.61;;;14.07;46.57
76819;BME280;65772;51.096;17.006;2023-04-25T10:31:03;99356.79;;;14.08;46.73
76819;BME280;65772;51.096;17.006;2023-04-25T10:33:35;99359.36;;;14.09;46.44
76819;BME280;65772;51.096;17.006;2023-04-25T10:36:14;99358.31;;;14.09;46.04
76819;BME280;65772;51.096;17.006;2023-04-25T10:38:45;99363.82;;;14.07;46.23
76819;BME280;65772;51.096;17.006;2023-04-25T10:41:19;99357.30;;;14.07;46.17
76819;BME280;65772;51.096;17.006;2023-04-25T10:43:58;99359.52;;;14.06;46.40
76819;BME280;65772;51.096;17.006;2023-04-25T10:46:30;99356.78;;;14.05;46.13
76819;BME280;65772;51.096;17.006;2023-04-25T10:49:05;99356.77;;;14.07;46.08
76819;BME280;65772;51.096;17.006;2023-04-25T10:51:38;99356.09;;;14.08;46.20
76819;BME280;65772;51.096;17.006;2023-04-25T10:54:24;99354.54;;;14.09;45.74
76819;BME280;65772;51.096;17.006;2023-04-25T10:56:59;99352.13;;;14.11;46.04
76819;BME280;65772;51.096;17.006;2023-04-25T10:59:31;99350.07;;;14.12;45.82
76819;BME280;65772;51.096;17.006;2023-04-25T11:02:12;99350.59;;;14.13;45.43
76819;BME280;65772;51.096;17.006;2023-04-25T11:04:45;99342.69;;;14.12;44.86
76819;BME280;65772;51.096;17.006;2023-04-25T11:07:22;99344.41;;;14.12;45.01
76819;BME280;65772;51.096;17.006;2023-04-25T11:09:54;99346.30;;;14.11;44.76
76819;BME280;65772;51.096;17.006;2023-04-25T11:12:26;99339.77;;;14.11;44.91
76819;BME280;65772;51.096;17.006;2023-04-25T11:15:02;99342.86;;;14.14;45.45
76819;BME280;65772;51.096;17.006;2023-04-25T11:17:33;99346.13;;;14.16;45.72
76819;BME280;65772;51.096;17.006;2023-04-25T11:20:06;99348.02;;;14.18;44.77
76819;BME280;65772;51.096;17.006;2023-04-25T11:22:41;99345.95;;;14.20;44.24
76819;BME280;65772;51.096;17.006;2023-04-25T11:25:13;99348.17;;;14.21;44.10
76819;BME280;65772;51.096;17.006;2023-04-25T11:27:54;99351.08;;;14.22;44.17
76819;BME280;65772;51.096;17.006;2023-04-25T11:30:27;99351.25;;;14.22;43.95
76819;BME280;65772;51.096;17.006;2023-04-25T11:32:58;99351.08;;;14.22;43.90
76819;BME280;65772;51.096;17.006;2023-04-25T11:35:28;99354.17;;;14.22;43.55
76819;BME280;65772;51.096;17.006;2023-04-25T11:37:59;99358.13;;;14.23;43.28
76819;BME280;65772;51.096;17.006;2023-04-25T11:40:31;99358.13;;;14.24;43.43
76819;BME280;65772;51.096;17.006;2023-04-25T11:43:00;99361.73;;;14.26;43.48
76819;BME280;65772;51.096;17.006;2023-04-25T11:45:31;99358.82;;;14.26;43.62
76819;BME280;65772;51.096;17.006;2023-04-25T11:48:02;99359.84;;;14.29;43.35
76819;BME280;65772;51.096;17.006;2023-04-25T11:50:33;99359.30;;;14.32;43.33
76819;BME280;65772;51.096;17.006;2023-04-25T11:53:04;99359.83;;;14.35;43.47
76819;BME280;65772;51.096;17.006;2023-04-25T11:55:35;99360.17;;;14.37;43.45
76819;BME280;65772;51.096;17.006;2023-04-25T11:58:06;99359.86;;;14.39;43.05
76819;BME280;65772;51.096;17.006;2023-04-25T12:00:37;99357.11;;;14.41;42.85
76819;BME280;65772;51.096;17.006;2023-04-25T12:03:19;99356.58;;;14.42;42.68
76819;BME280;65772;51.096;17.006;2023-04-25T12:05:52;99359.32;;;14.43;42.62
76819;BME280;65772;51.096;17.006;2023-04-25T12:08:23;99357.61;;;14.44;42.41
76819;BME280;65772;51.096;17.006;2023-04-25T12:10:55;99356.23;;;14.45;42.42
76819;BME280;65772;51.096;17.006;2023-04-25T12:13:26;99359.66;;;14.45;42.33
76819;BME280;65772;51.096;17.006;2023-04-25T12:15:57;99363.27;;;14.44;42.36
76819;BME280;65772;51.096;17.006;2023-04-25T12:18:28;99364.30;;;14.44;42.32
76819;BME280;65772;51.096;17.006;2023-04-25T12:20:59;99363.61;;;14.43;42.29
76819;BME280;65772;51.096;17.006;2023-04-25T12:23:30;99362.77;;;14.41;42.21
76819;BME280;65772;51.096;17.006;2023-04-25T12:26:01;99360.38;;;14.41;42.58
76819;BME280;65772;51.096;17.006;2023-04-25T12:28:33;99361.55;;;14.42;42.79
76819;BME280;65772;51.096;17.006;2023-04-25T12:31:05;99367.91;;;14.43;42.90
76819;BME280;65772;51.096;17.006;2023-04-25T12:33:35;99369.80;;;14.44;42.48
76819;BME280;65772;51.096;17.006;2023-04-25T12:36:07;99374.77;;;14.42;42.11
76819;BME280;65772;51.096;17.006;2023-04-25T12:38:41;99368.60;;;14.41;42.14
76819;BME280;65772;51.096;17.006;2023-04-25T12:41:12;99373.23;;;14.43;42.38
76819;BME280;65772;51.096;17.006;2023-04-25T12:43:43;99369.63;;;14.45;42.41
76819;BME280;65772;51.096;17.006;2023-04-25T12:46:13;99368.77;;;14.47;42.36
76819;BME280;65772;51.096;17.006;2023-04-25T12:48:44;99366.88;;;14.47;41.79
76819;BME280;65772;51.096;17.006;2023-04-25T12:51:15;99364.13;;;14.48;41.60
76819;BME280;65772;51.096;17.006;2023-04-25T12:53:45;99364.48;;;14.49;41.71
76819;BME280;65772;51.096;17.006;2023-04-25T12:56:16;99364.99;;;14.50;41.53
76819;BME280;65772;51.096;17.006;2023-04-25T12:58:50;99362.59;;;14.51;41.77
76819;BME280;65772;51.096;17.006;2023-04-25T13:01:22;99362.58;;;14.52;41.98
76819;BME280;65772;51.096;17.006;2023-04-25T13:03:53;99358.27;;;14.53;42.27
76819;BME280;65772;51.096;17.006;2023-04-25T13:06:25;99359.98;;;14.53;41.70
76819;BME280;65772;51.096;17.006;2023-04-25T13:08:56;99362.05;;;14.52;41.43
76819;BME280;65772;51.096;17.006;2023-04-25T13:11:26;99360.16;;;14.53;41.14
76819;BME280;65772;51.096;17.006;2023-04-25T13:14:02;99356.38;;;14.53;41.32
76819;BME280;65772;51.096;17.006;2023-04-25T13:16:33;99357.75;;;14.53;40.93
76819;BME280;65772;51.096;17.006;2023-04-25T13:19:04;99362.04;;;14.53;40.99
76819;BME280;65772;51.096;17.006;2023-04-25T13:21:36;99358.27;;;14.53;40.93
76819;BME280;65772;51.096;17.006;2023-04-25T13:24:07;99363.08;;;14.55;40.82
76819;BME280;65772;51.096;17.006;2023-04-25T13:26:38;99364.27;;;14.56;40.92